sensor_id;sensor_type;location;lat;lon;timestamp;temperature;humidity
41262;DHT22;29629;52.532;13.352;2022-12-07T00:01:12;3.80;99.90
41262;DHT22;29629;52.532;13.352;2022-12-07T00:03:41;3.80;99.90
41262;DHT22;29629;52.532;13.352;2022-12-07T00:06:10;3.80;99.90
41262;DHT22;29629;52.532;13.352;2022-12-07T00:08:38;3.70;99.90
41262;DHT22;29629;52.532;13.352;2022-12-07T00:11:07;3.70;99.90
41262;DHT22;29629;52.532;13.352;2022-12-07T00:13:35;3.70;99.90
41262;DHT22;29629;52.532;13.352;2022-12-07T00:16:05;3.70;99.90
41262;DHT22;29629;52.532;13.352;2022-12-07T00:18:33;3.70;99.90
41262;DHT22;29629;52.532;13.352;2022-12-07T00:21:00;3.70;99.90
41262;DHT22;29629;52.532;13.352;2022-12-07T00:23:27;3.70;99.90
41262;DHT22;29629;52.532;13.352;2022-12-07T00:25:54;3.70;99.90
41262;DHT22;29629;52.532;13.352;2022-12-07T00:28:21;3.70;99.90
41262;DHT22;29629;52.532;13.352;2022-12-07T00:30:48;3.50;99.90
41262;DHT22;29629;52.532;13.352;2022-12-07T00:33:16;3.60;99.90
41262;DHT22;29629;52.532;13.352;2022-12-07T00:35:43;3.70;99.90
41262;DHT22;29629;52.532;13.352;2022-12-07T00:38:10;3.80;99.90
41262;DHT22;29629;52.532;13.352;2022-12-07T00:40:37;3.80;99.90
41262;DHT22;29629;52.532;13.352;2022-12-07T00:43:04;3.80;99.90
41262;DHT22;29629;52.532;13.352;2022-12-07T00:45:31;3.70;99.90
41262;DHT22;29629;52.532;13.352;2022-12-07T00:47:58;3.50;99.90
41262;DHT22;29629;52.532;13.352;2022-12-07T00:50:26;3.50;99.90
41262;DHT22;29629;52.532;13.352;2022-12-07T00:52:53;3.40;99.90
41262;DHT22;29629;52.532;13.352;2022-12-07T00:55:20;3.40;99.90
41262;DHT22;29629;52.532;13.352;2022-12-07T00:57:47;3.40;99.90
41262;DHT22;29629;52.532;13.352;2022-12-07T01:00:14;3.30;99.90
41262;DHT22;29629;52.532;13.352;2022-12-07T01:02:41;3.30;99.90
41262;DHT22;29629;52.532;13.352;2022-12-07T01:05:08;3.20;99.90
41262;DHT22;29629;52.532;13.352;2022-12-07T01:07:37;3.20;99.90
41262;DHT22;29629;52.532;13.352;2022-12-07T01:10:05;3.20;99.90
41262;DHT22;29629;52.532;13.352;2022-12-07T01:12:32;3.30;99.90
41262;DHT22;29629;52.532;13.352;2022-12-07T01:14:59;3.30;99.90
41262;DHT22;29629;52.532;13.352;2022-12-07T01:17:25;3.20;99.90
41262;DHT22;29629;52.532;13.352;2022-12-07T01:19:52;3.30;99.90
41262;DHT22;29629;52.532;13.352;2022-12-07T01:22:19;3.20;99.90
41262;DHT22;29629;52.532;13.352;2022-12-07T01:24:47;3.30;99.90
41262;DHT22;29629;52.532;13.352;2022-12-07T01:27:14;3.40;99.90
41262;DHT22;29629;52.532;13.352;2022-12-07T01:29:41;3.40;99.90
41262;DHT22;29629;52.532;13.352;2022-12-07T01:32:08;3.30;99.90
41262;DHT22;29629;52.532;13.352;2022-12-07T01:34:35;3.30;99.90
41262;DHT22;29629;52.532;13.352;2022-12-07T01:37:02;3.30;99.90
41262;DHT22;29629;52.532;13.352;2022-12-07T01:39:29;3.30;99.90
41262;DHT22;29629;52.532;13.352;2022-12-07T01:41:57;3.20;99.90
41262;DHT22;29629;52.532;13.352;2022-12-07T01:44:25;3.20;99.90
41262;DHT22;29629;52.532;13.352;2022-12-07T01:46:54;3.20;99.90
41262;DHT22;29629;52.532;13.352;2022-12-07T01:49:29;3.30;99.90
41262;DHT22;29629;52.532;13.352;2022-12-07T01:52:04;3.30;99.90
41262;DHT22;29629;52.532;13.352;2022-12-07T01:54:34;3.20;99.90
41262;DHT22;29629;52.532;13.352;2022-12-07T01:57:03;3.10;99.90
41262;DHT22;29629;52.532;13.352;2022-12-07T01:59:31;3.20;99.90
41262;DHT22;29629;52.532;13.352;2022-12-07T02:01:58;3.20;99.90
41262;DHT22;29629;52.532;13.352;2022-12-07T02:04:27;3.20;99.90
41262;DHT22;29629;52.532;13.352;2022-12-07T02:06:55;3.20;99.90
41262;DHT22;29629;52.532;13.352;2022-12-07T02:09:22;3.30;99.90
41262;DHT22;29629;52.532;13.352;2022-12-07T02:11:49;3.30;99.90
41262;DHT22;29629;52.532;13.352;2022-12-07T02:14:18;3.20;99.90
41262;DHT22;29629;52.532;13.352;2022-12-07T02:16:56;3.20;99.90
41262;DHT22;29629;52.532;13.352;2022-12-07T02:20:03;3.30;99.90
41262;DHT22;29629;52.532;13.352;2022-12-07T02:22:57;3.20;99.90
41262;DHT22;29629;52.532;13.352;2022-12-07T02:25:36;3.00;99.90
41262;DHT22;29629;52.532;13.352;2022-12-07T02:28:12;3.00;99.90
41262;DHT22;29629;52.532;13.352;2022-12-07T02:30:48;3.00;99.90
41262;DHT22;29629;52.532;13.352;2022-12-07T02:33:19;2.90;99.90
41262;DHT22;29629;52.532;13.352;2022-12-07T02:35:54;2.90;99.90
41262;DHT22;29629;52.532;13.352;2022-12-07T02:38:26;3.00;99.90
41262;DHT22;29629;52.532;13.352;2022-12-07T02:41:00;2.80;99.90
41262;DHT22;29629;52.532;13.352;2022-12-07T02:43:30;2.80;99.90
41262;DHT22;29629;52.532;13.352;2022-12-07T02:46:03;2.80;99.90
41262;DHT22;29629;52.532;13.352;2022-12-07T02:48:31;2.80;99.90
41262;DHT22;29629;52.532;13.352;2022-12-07T02:50:59;2.90;99.90
41262;DHT22;29629;52.532;13.352;2022-12-07T02:53:31;2.80;99.90
41262;DHT22;29629;52.532;13.352;2022-12-07T02:55:59;2.80;99.90
41262;DHT22;29629;52.532;13.352;2022-12-07T02:58:35;2.80;99.90
41262;DHT22;29629;52.532;13.352;2022-12-07T03:01:14;2.80;99.90
41262;DHT22;29629;52.532;13.352;2022-12-07T03:03:48;2.60;99.90
41262;DHT22;29629;52.532;13.352;2022-12-07T03:06:22;2.60;99.90
41262;DHT22;29629;52.532;13.352;2022-12-07T03:09:01;2.60;99.90
41262;DHT22;29629;52.532;13.352;2022-12-07T03:11:37;2.60;99.90
41262;DHT22;29629;52.532;13.352;2022-12-07T03:14:15;2.60;99.90
41262;DHT22;29629;52.532;13.352;2022-12-07T03:16:47;2.60;99.90
41262;DHT22;29629;52.532;13.352;2022-12-07T03:19:16;2.70;99.90
41262;DHT22;29629;52.532;13.352;2022-12-07T03:21:47;2.50;99.90
41262;DHT22;29629;52.532;13.352;2022-12-07T03:24:19;2.70;99.90
41262;DHT22;29629;52.532;13.352;2022-12-07T03:26:50;2.70;99.90
41262;DHT22;29629;52.532;13.352;2022-12-07T03:29:22;2.60;99.90
41262;DHT22;29629;52.532;13.352;2022-12-07T03:31:57;2.60;99.90
41262;DHT22;29629;52.532;13.352;2022-12-07T03:34:31;2.60;99.90
41262;DHT22;29629;52.532;13.352;2022-12-07T03:37:03;2.60;99.90
41262;DHT22;29629;52.532;13.352;2022-12-07T03:39:34;2.60;99.90
41262;DHT22;29629;52.532;13.352;2022-12-07T03:42:05;2.50;99.90
41262;DHT22;29629;52.532;13.352;2022-12-07T03:44:33;2.60;99.90
41262;DHT22;29629;52.532;13.352;2022-12-07T03:47:05;2.60;99.90
41262;DHT22;29629;52.532;13.352;2022-12-07T03:49:38;2.60;99.90
41262;DHT22;29629;52.532;13.352;2022-12-07T03:52:12;2.60;99.90
41262;DHT22;29629;52.532;13.352;2022-12-07T03:54:44;2.60;99.90
41262;DHT22;29629;52.532;13.352;2022-12-07T03:57:14;2.50;99.90
41262;DHT22;29629;52.532;13.352;2022-12-07T03:59:42;2.50;99.90
41262;DHT22;29629;52.532;13.352;2022-12-07T04:02:11;2.50;99.90
41262;DHT22;29629;52.532;13.352;2022-12-07T04:04:40;2.50;99.90
41262;DHT22;29629;52.532;13.352;2022-12-07T04:07:08;2.60;99.90
41262;DHT22;29629;52.532;13.352;2022-12-07T04:09:35;2.50;99.90
41262;DHT22;29629;52.532;13.352;2022-12-07T04:12:01;2.60;99.90
41262;DHT22;29629;52.532;13.352;2022-12-07T04:14:28;2.50;99.90
41262;DHT22;29629;52.532;13.352;2022-12-07T04:16:57;2.40;99.90
41262;DHT22;29629;52.532;13.352;2022-12-07T04:19:27;2.40;99.90
41262;DHT22;29629;52.532;13.352;2022-12-07T04:21:54;2.50;99.90
41262;DHT22;29629;52.532;13.352;2022-12-07T04:24:22;2.50;99.90
41262;DHT22;29629;52.532;13.352;2022-12-07T04:26:49;2.60;99.90
41262;DHT22;29629;52.532;13.352;2022-12-07T04:29:16;2.70;99.90
41262;DHT22;29629;52.532;13.352;2022-12-07T04:31:44;2.80;99.90
41262;DHT22;29629;52.532;13.352;2022-12-07T04:34:12;2.70;99.90
41262;DHT22;29629;52.532;13.352;2022-12-07T04:36:40;2.80;99.90
41262;DHT22;29629;52.532;13.352;2022-12-07T04:39:19;2.60;99.90
41262;DHT22;29629;52.532;13.352;2022-12-07T04:41:46;2.60;99.90
41262;DHT22;29629;52.532;13.352;2022-12-07T04:44:14;2.60;99.90
41262;DHT22;29629;52.532;13.352;2022-12-07T04:46:41;2.60;99.90
41262;DHT22;29629;52.532;13.352;2022-12-07T04:49:09;2.50;99.90
41262;DHT22;29629;52.532;13.352;2022-12-07T04:51:36;2.60;99.90
41262;DHT22;29629;52.532;13.352;2022-12-07T04:54:05;2.50;99.90
41262;DHT22;29629;52.532;13.352;2022-12-07T04:56:32;2.60;99.90
41262;DHT22;29629;52.532;13.352;2022-12-07T04:59:01;2.70;99.90
41262;DHT22;29629;52.532;13.352;2022-12-07T05:01:28;2.80;99.90
41262;DHT22;29629;52.532;13.352;2022-12-07T05:03:55;2.80;99.90
41262;DHT22;29629;52.532;13.352;2022-12-07T05:06:22;2.90;99.90
41262;DHT22;29629;52.532;13.352;2022-12-07T05:08:49;2.90;99.90
41262;DHT22;29629;52.532;13.352;2022-12-07T05:11:18;3.10;99.90
41262;DHT22;29629;52.532;13.352;2022-12-07T05:13:59;3.10;99.90
41262;DHT22;29629;52.532;13.352;2022-12-07T05:16:26;3.10;99.90
41262;DHT22;29629;52.532;13.352;2022-12-07T05:18:53;3.20;99.90
41262;DHT22;29629;52.532;13.352;2022-12-07T05:21:20;3.20;99.90
41262;DHT22;29629;52.532;13.352;2022-12-07T05:23:47;3.10;99.90
41262;DHT22;29629;52.532;13.352;2022-12-07T05:26:14;3.20;99.90
41262;DHT22;29629;52.532;13.352;2022-12-07T05:28:42;3.30;99.90
41262;DHT22;29629;52.532;13.352;2022-12-07T05:31:09;3.30;99.90
41262;DHT22;29629;52.532;13.352;2022-12-07T05:33:36;3.30;99.90
41262;DHT22;29629;52.532;13.352;2022-12-07T05:36:03;3.40;99.90
41262;DHT22;29629;52.532;13.352;2022-12-07T05:38:33;3.40;99.90
41262;DHT22;29629;52.532;13.352;2022-12-07T05:41:01;3.40;99.90
41262;DHT22;29629;52.532;13.352;2022-12-07T05:43:28;3.40;99.90
41262;DHT22;29629;52.532;13.352;2022-12-07T05:45:55;3.50;99.90
41262;DHT22;29629;52.532;13.352;2022-12-07T05:48:22;3.50;99.90
41262;DHT22;29629;52.532;13.352;2022-12-07T05:50:50;3.50;99.90
41262;DHT22;29629;52.532;13.352;2022-12-07T05:53:18;3.50;99.90
41262;DHT22;29629;52.532;13.352;2022-12-07T05:55:45;3.50;99.90
41262;DHT22;29629;52.532;13.352;2022-12-07T05:58:12;3.50;99.90
41262;DHT22;29629;52.532;13.352;2022-12-07T06:00:57;3.60;99.90
41262;DHT22;29629;52.532;13.352;2022-12-07T06:03:24;3.60;99.90
41262;DHT22;29629;52.532;13.352;2022-12-07T06:05:52;3.60;99.90
41262;DHT22;29629;52.532;13.352;2022-12-07T06:08:19;3.60;99.90
41262;DHT22;29629;52.532;13.352;2022-12-07T06:10:47;3.70;99.90
41262;DHT22;29629;52.532;13.352;2022-12-07T06:13:40;3.70;99.90
41262;DHT22;29629;52.532;13.352;2022-12-07T06:16:07;3.70;99.90
41262;DHT22;29629;52.532;13.352;2022-12-07T06:18:34;3.80;99.90
41262;DHT22;29629;52.532;13.352;2022-12-07T06:21:04;3.80;99.90
41262;DHT22;29629;52.532;13.352;2022-12-07T06:23:31;3.70;99.90
41262;DHT22;29629;52.532;13.352;2022-12-07T06:25:58;3.80;99.90
41262;DHT22;29629;52.532;13.352;2022-12-07T06:28:25;3.80;99.90
41262;DHT22;29629;52.532;13.352;2022-12-07T06:30:57;3.70;99.90
41262;DHT22;29629;52.532;13.352;2022-12-07T06:33:26;3.70;99.90
41262;DHT22;29629;52.532;13.352;2022-12-07T06:35:53;3.90;99.90
41262;DHT22;29629;52.532;13.352;2022-12-07T06:38:22;3.70;99.90
41262;DHT22;29629;52.532;13.352;2022-12-07T06:40:49;3.80;99.90
41262;DHT22;29629;52.532;13.352;2022-12-07T06:43:16;3.90;99.90
41262;DHT22;29629;52.532;13.352;2022-12-07T06:45:43;3.80;99.90
41262;DHT22;29629;52.532;13.352;2022-12-07T06:48:10;3.90;99.90
41262;DHT22;29629;52.532;13.352;2022-12-07T06:50:39;3.90;99.90
41262;DHT22;29629;52.532;13.352;2022-12-07T06:53:06;3.90;99.90
41262;DHT22;29629;52.532;13.352;2022-12-07T06:55:34;3.90;99.90
41262;DHT22;29629;52.532;13.352;2022-12-07T06:58:01;3.80;99.90
41262;DHT22;29629;52.532;13.352;2022-12-07T07:00:28;4.00;99.90
41262;DHT22;29629;52.532;13.352;2022-12-07T07:02:55;4.00;99.90
41262;DHT22;29629;52.532;13.352;2022-12-07T07:05:22;3.90;99.90
41262;DHT22;29629;52.532;13.352;2022-12-07T07:07:50;4.00;99.90
41262;DHT22;29629;52.532;13.352;2022-12-07T07:10:18;4.00;99.90
41262;DHT22;29629;52.532;13.352;2022-12-07T07:12:44;4.00;99.90
41262;DHT22;29629;52.532;13.352;2022-12-07T07:15:11;4.10;99.90
41262;DHT22;29629;52.532;13.352;2022-12-07T07:17:38;4.10;99.90
41262;DHT22;29629;52.532;13.352;2022-12-07T07:20:06;4.10;99.90
41262;DHT22;29629;52.532;13.352;2022-12-07T07:22:33;4.10;99.90
41262;DHT22;29629;52.532;13.352;2022-12-07T07:25:02;4.20;99.90
41262;DHT22;29629;52.532;13.352;2022-12-07T07:27:30;4.20;99.90
41262;DHT22;29629;52.532;13.352;2022-12-07T07:29:57;4.20;99.90
41262;DHT22;29629;52.532;13.352;2022-12-07T07:32:24;4.20;99.90
41262;DHT22;29629;52.532;13.352;2022-12-07T07:34:51;4.10;99.90
41262;DHT22;29629;52.532;13.352;2022-12-07T07:37:18;4.20;99.90
41262;DHT22;29629;52.532;13.352;2022-12-07T07:39:45;4.20;99.90
41262;DHT22;29629;52.532;13.352;2022-12-07T07:42:13;4.10;99.90
41262;DHT22;29629;52.532;13.352;2022-12-07T07:44:40;4.10;99.90
41262;DHT22;29629;52.532;13.352;2022-12-07T07:47:07;4.10;99.90
41262;DHT22;29629;52.532;13.352;2022-12-07T07:49:34;4.20;99.90
41262;DHT22;29629;52.532;13.352;2022-12-07T07:52:01;4.20;99.90
41262;DHT22;29629;52.532;13.352;2022-12-07T07:54:28;4.20;99.90
41262;DHT22;29629;52.532;13.352;2022-12-07T07:56:55;4.20;99.90
41262;DHT22;29629;52.532;13.352;2022-12-07T07:59:23;4.30;99.90
41262;DHT22;29629;52.532;13.352;2022-12-07T08:01:51;4.20;99.90
41262;DHT22;29629;52.532;13.352;2022-12-07T08:04:18;4.30;99.90
41262;DHT22;29629;52.532;13.352;2022-12-07T08:06:45;4.30;99.90
41262;DHT22;29629;52.532;13.352;2022-12-07T08:09:12;4.30;99.90
41262;DHT22;29629;52.532;13.352;2022-12-07T08:11:39;4.40;99.90
41262;DHT22;29629;52.532;13.352;2022-12-07T08:14:06;4.40;99.90
41262;DHT22;29629;52.532;13.352;2022-12-07T08:16:34;4.50;99.90
41262;DHT22;29629;52.532;13.352;2022-12-07T08:19:01;4.40;99.90
41262;DHT22;29629;52.532;13.352;2022-12-07T08:21:30;4.40;99.90
41262;DHT22;29629;52.532;13.352;2022-12-07T08:23:57;4.60;99.90
41262;DHT22;29629;52.532;13.352;2022-12-07T08:26:24;4.50;99.90
41262;DHT22;29629;52.532;13.352;2022-12-07T08:28:53;4.50;99.90
41262;DHT22;29629;52.532;13.352;2022-12-07T08:31:20;4.60;99.90
41262;DHT22;29629;52.532;13.352;2022-12-07T08:33:48;4.50;99.90
41262;DHT22;29629;52.532;13.352;2022-12-07T08:36:16;4.60;99.90
41262;DHT22;29629;52.532;13.352;2022-12-07T08:38:43;4.50;99.90
41262;DHT22;29629;52.532;13.352;2022-12-07T08:41:10;4.60;99.90
41262;DHT22;29629;52.532;13.352;2022-12-07T08:43:37;4.50;99.90
41262;DHT22;29629;52.532;13.352;2022-12-07T08:46:08;4.50;99.90
41262;DHT22;29629;52.532;13.352;2022-12-07T08:48:39;4.70;99.90
41262;DHT22;29629;52.532;13.352;2022-12-07T08:51:09;4.60;99.90
41262;DHT22;29629;52.532;13.352;2022-12-07T08:53:37;4.80;99.90
41262;DHT22;29629;52.532;13.352;2022-12-07T08:56:06;4.70;99.90
41262;DHT22;29629;52.532;13.352;2022-12-07T08:58:36;4.60;99.90
41262;DHT22;29629;52.532;13.352;2022-12-07T09:01:04;4.60;99.90
41262;DHT22;29629;52.532;13.352;2022-12-07T09:03:31;4.60;99.90
41262;DHT22;29629;52.532;13.352;2022-12-07T09:05:59;4.60;99.90
41262;DHT22;29629;52.532;13.352;2022-12-07T09:08:31;4.50;99.90
41262;DHT22;29629;52.532;13.352;2022-12-07T09:10:59;4.50;99.90
41262;DHT22;29629;52.532;13.352;2022-12-07T09:13:26;4.60;99.90
41262;DHT22;29629;52.532;13.352;2022-12-07T09:15:53;4.60;99.90
41262;DHT22;29629;52.532;13.352;2022-12-07T09:18:20;4.60;99.90
41262;DHT22;29629;52.532;13.352;2022-12-07T09:20:47;4.50;99.90
41262;DHT22;29629;52.532;13.352;2022-12-07T09:23:14;4.40;99.90
41262;DHT22;29629;52.532;13.352;2022-12-07T09:25:42;4.50;99.90
41262;DHT22;29629;52.532;13.352;2022-12-07T09:28:09;4.50;99.90
41262;DHT22;29629;52.532;13.352;2022-12-07T09:30:36;4.50;99.90
41262;DHT22;29629;52.532;13.352;2022-12-07T09:33:03;4.50;99.90
41262;DHT22;29629;52.532;13.352;2022-12-07T09:35:30;4.60;99.90
41262;DHT22;29629;52.532;13.352;2022-12-07T09:37:57;4.50;99.90
41262;DHT22;29629;52.532;13.352;2022-12-07T09:40:24;4.60;99.90
41262;DHT22;29629;52.532;13.352;2022-12-07T09:42:54;4.60;99.90
41262;DHT22;29629;52.532;13.352;2022-12-07T09:45:23;4.50;99.90
41262;DHT22;29629;52.532;13.352;2022-12-07T09:47:51;4.40;99.90
41262;DHT22;29629;52.532;13.352;2022-12-07T09:50:21;4.50;99.90
41262;DHT22;29629;52.532;13.352;2022-12-07T09:52:50;4.40;99.90
41262;DHT22;29629;52.532;13.352;2022-12-07T09:55:22;4.40;99.90
41262;DHT22;29629;52.532;13.352;2022-12-07T09:57:52;4.30;99.90
41262;DHT22;29629;52.532;13.352;2022-12-07T10:00:21;4.40;99.90
41262;DHT22;29629;52.532;13.352;2022-12-07T10:02:53;4.50;99.90
41262;DHT22;29629;52.532;13.352;2022-12-07T10:05:25;4.50;99.90
41262;DHT22;29629;52.532;13.352;2022-12-07T10:07:53;4.50;99.90
41262;DHT22;29629;52.532;13.352;2022-12-07T10:10:23;4.40;99.90
41262;DHT22;29629;52.532;13.352;2022-12-07T10:13:00;4.50;99.90
41262;DHT22;29629;52.532;13.352;2022-12-07T10:15:49;4.50;99.90
41262;DHT22;29629;52.532;13.352;2022-12-07T10:18:29;4.50;99.90
41262;DHT22;29629;52.532;13.352;2022-12-07T10:21:05;4.40;99.90
41262;DHT22;29629;52.532;13.352;2022-12-07T10:23:37;4.40;99.90
41262;DHT22;29629;52.532;13.352;2022-12-07T10:26:20;4.40;99.90
41262;DHT22;29629;52.532;13.352;2022-12-07T10:28:49;4.30;99.90
41262;DHT22;29629;52.532;13.352;2022-12-07T10:31:18;4.30;99.90
41262;DHT22;29629;52.532;13.352;2022-12-07T10:33:50;4.30;99.90
41262;DHT22;29629;52.532;13.352;2022-12-07T10:36:21;4.30;99.90
41262;DHT22;29629;52.532;13.352;2022-12-07T10:38:50;4.20;99.90
41262;DHT22;29629;52.532;13.352;2022-12-07T10:41:17;4.30;99.90
41262;DHT22;29629;52.532;13.352;2022-12-07T10:43:51;4.30;99.90
41262;DHT22;29629;52.532;13.352;2022-12-07T10:46:49;4.40;99.90
41262;DHT22;29629;52.532;13.352;2022-12-07T10:49:43;4.40;99.90
41262;DHT22;29629;52.532;13.352;2022-12-07T10:52:21;4.40;99.90
41262;DHT22;29629;52.532;13.352;2022-12-07T10:55:03;4.40;99.90
41262;DHT22;29629;52.532;13.352;2022-12-07T10:57:46;4.30;99.90
41262;DHT22;29629;52.532;13.352;2022-12-07T11:00:19;4.30;99.90
41262;DHT22;29629;52.532;13.352;2022-12-07T11:05:56;4.50;99.90
41262;DHT22;29629;52.532;13.352;2022-12-07T11:08:39;4.50;99.90
41262;DHT22;29629;52.532;13.352;2022-12-07T11:11:13;4.60;99.90
41262;DHT22;29629;52.532;13.352;2022-12-07T11:13:46;4.50;99.90
41262;DHT22;29629;52.532;13.352;2022-12-07T11:16:32;4.60;99.90
41262;DHT22;29629;52.532;13.352;2022-12-07T11:19:16;4.70;99.90
41262;DHT22;29629;52.532;13.352;2022-12-07T11:21:50;4.70;99.90
41262;DHT22;29629;52.532;13.352;2022-12-07T11:24:27;4.70;99.90
41262;DHT22;29629;52.532;13.352;2022-12-07T11:27:09;4.70;99.90
41262;DHT22;29629;52.532;13.352;2022-12-07T11:29:49;4.90;99.90
41262;DHT22;29629;52.532;13.352;2022-12-07T11:32:22;5.00;99.90
41262;DHT22;29629;52.532;13.352;2022-12-07T11:34:59;4.90;99.90
41262;DHT22;29629;52.532;13.352;2022-12-07T11:37:32;5.00;99.90
41262;DHT22;29629;52.532;13.352;2022-12-07T11:40:03;5.20;99.90
41262;DHT22;29629;52.532;13.352;2022-12-07T11:42:35;5.30;99.90
41262;DHT22;29629;52.532;13.352;2022-12-07T11:45:12;5.30;99.90
41262;DHT22;29629;52.532;13.352;2022-12-07T11:47:46;5.20;99.90
41262;DHT22;29629;52.532;13.352;2022-12-07T11:50:25;5.10;99.90
41262;DHT22;29629;52.532;13.352;2022-12-07T11:52:56;5.00;99.90
41262;DHT22;29629;52.532;13.352;2022-12-07T11:55:29;5.00;99.90
41262;DHT22;29629;52.532;13.352;2022-12-07T11:58:03;4.80;99.90
41262;DHT22;29629;52.532;13.352;2022-12-07T12:00:31;4.90;99.90
41262;DHT22;29629;52.532;13.352;2022-12-07T12:03:03;4.80;99.90
41262;DHT22;29629;52.532;13.352;2022-12-07T12:05:31;4.90;99.90
41262;DHT22;29629;52.532;13.352;2022-12-07T12:08:03;4.90;99.90
41262;DHT22;29629;52.532;13.352;2022-12-07T12:10:47;5.00;99.90
41262;DHT22;29629;52.532;13.352;2022-12-07T12:13:44;5.00;99.90
41262;DHT22;29629;52.532;13.352;2022-12-07T12:19:24;5.00;99.90
41262;DHT22;29629;52.532;13.352;2022-12-07T12:21:56;5.10;99.90
41262;DHT22;29629;52.532;13.352;2022-12-07T12:24:26;5.00;99.90
41262;DHT22;29629;52.532;13.352;2022-12-07T12:26:57;5.00;99.90
41262;DHT22;29629;52.532;13.352;2022-12-07T12:29:31;4.90;99.90
41262;DHT22;29629;52.532;13.352;2022-12-07T12:32:07;5.00;99.90
41262;DHT22;29629;52.532;13.352;2022-12-07T12:34:42;5.00;99.90
41262;DHT22;29629;52.532;13.352;2022-12-07T12:37:43;5.10;99.90
41262;DHT22;29629;52.532;13.352;2022-12-07T12:40:41;5.00;99.90
41262;DHT22;29629;52.532;13.352;2022-12-07T12:43:39;5.00;99.90
41262;DHT22;29629;52.532;13.352;2022-12-07T12:46:38;5.10;99.90
41262;DHT22;29629;52.532;13.352;2022-12-07T12:49:37;5.20;99.90
41262;DHT22;29629;52.532;13.352;2022-12-07T13:01:33;5.10;99.90
41262;DHT22;29629;52.532;13.352;2022-12-07T13:04:20;5.10;99.90
41262;DHT22;29629;52.532;13.352;2022-12-07T13:06:49;5.20;99.90
41262;DHT22;29629;52.532;13.352;2022-12-07T13:09:20;5.10;99.90
41262;DHT22;29629;52.532;13.352;2022-12-07T13:11:56;5.10;99.90
41262;DHT22;29629;52.532;13.352;2022-12-07T13:14:52;5.00;99.90
41262;DHT22;29629;52.532;13.352;2022-12-07T13:23:24;5.20;99.90
41262;DHT22;29629;52.532;13.352;2022-12-07T13:25:56;5.10;99.90
41262;DHT22;29629;52.532;13.352;2022-12-07T13:28:33;5.10;99.90
41262;DHT22;29629;52.532;13.352;2022-12-07T13:34:01;5.10;99.90
41262;DHT22;29629;52.532;13.352;2022-12-07T13:36:31;5.10;99.90
41262;DHT22;29629;52.532;13.352;2022-12-07T13:39:16;5.10;99.90
41262;DHT22;29629;52.532;13.352;2022-12-07T13:41:46;5.10;99.90
41262;DHT22;29629;52.532;13.352;2022-12-07T13:44:18;5.10;99.90
41262;DHT22;29629;52.532;13.352;2022-12-07T13:46:51;5.10;99.90
41262;DHT22;29629;52.532;13.352;2022-12-07T13:49:21;5.00;99.90
41262;DHT22;29629;52.532;13.352;2022-12-07T13:51:49;5.00;99.90
41262;DHT22;29629;52.532;13.352;2022-12-07T13:54:17;5.00;99.90
41262;DHT22;29629;52.532;13.352;2022-12-07T13:56:46;5.10;99.90
41262;DHT22;29629;52.532;13.352;2022-12-07T13:59:18;5.10;99.90
41262;DHT22;29629;52.532;13.352;2022-12-07T14:01:47;5.00;99.90
41262;DHT22;29629;52.532;13.352;2022-12-07T14:07:01;5.10;99.90
41262;DHT22;29629;52.532;13.352;2022-12-07T14:09:54;5.10;99.90
41262;DHT22;29629;52.532;13.352;2022-12-07T14:12:22;5.00;99.90
41262;DHT22;29629;52.532;13.352;2022-12-07T14:14:50;5.00;99.90
41262;DHT22;29629;52.532;13.352;2022-12-07T14:17:20;5.00;99.90
41262;DHT22;29629;52.532;13.352;2022-12-07T14:19:50;5.00;99.90
41262;DHT22;29629;52.532;13.352;2022-12-07T14:22:38;5.00;99.90
41262;DHT22;29629;52.532;13.352;2022-12-07T14:25:20;5.00;99.90
41262;DHT22;29629;52.532;13.352;2022-12-07T14:27:49;5.00;99.90
41262;DHT22;29629;52.532;13.352;2022-12-07T14:30:19;5.00;99.90
41262;DHT22;29629;52.532;13.352;2022-12-07T14:32:47;4.90;99.90
41262;DHT22;29629;52.532;13.352;2022-12-07T14:35:16;4.90;99.90
41262;DHT22;29629;52.532;13.352;2022-12-07T14:37:46;4.80;99.90
41262;DHT22;29629;52.532;13.352;2022-12-07T14:40:15;4.80;99.90
41262;DHT22;29629;52.532;13.352;2022-12-07T14:42:43;4.70;99.90
41262;DHT22;29629;52.532;13.352;2022-12-07T14:45:15;4.70;99.90
41262;DHT22;29629;52.532;13.352;2022-12-07T14:47:44;4.70;99.90
41262;DHT22;29629;52.532;13.352;2022-12-07T14:50:12;4.60;99.90
41262;DHT22;29629;52.532;13.352;2022-12-07T14:52:40;4.60;99.90
41262;DHT22;29629;52.532;13.352;2022-12-07T14:55:13;4.60;99.90
41262;DHT22;29629;52.532;13.352;2022-12-07T14:57:40;4.60;99.90
41262;DHT22;29629;52.532;13.352;2022-12-07T15:00:12;4.60;99.90
41262;DHT22;29629;52.532;13.352;2022-12-07T15:02:40;4.60;99.90
41262;DHT22;29629;52.532;13.352;2022-12-07T15:05:08;4.50;99.90
41262;DHT22;29629;52.532;13.352;2022-12-07T15:07:36;4.50;99.90
41262;DHT22;29629;52.532;13.352;2022-12-07T15:10:04;4.40;99.90
41262;DHT22;29629;52.532;13.352;2022-12-07T15:12:31;4.40;99.90
41262;DHT22;29629;52.532;13.352;2022-12-07T15:14:58;4.30;99.90
41262;DHT22;29629;52.532;13.352;2022-12-07T15:17:27;4.30;99.90
41262;DHT22;29629;52.532;13.352;2022-12-07T15:19:54;4.30;99.90
41262;DHT22;29629;52.532;13.352;2022-12-07T15:22:22;4.20;99.90
41262;DHT22;29629;52.532;13.352;2022-12-07T15:24:49;4.20;99.90
41262;DHT22;29629;52.532;13.352;2022-12-07T15:27:16;4.20;99.90
41262;DHT22;29629;52.532;13.352;2022-12-07T15:29:43;4.30;99.90
41262;DHT22;29629;52.532;13.352;2022-12-07T15:32:10;4.30;99.90
41262;DHT22;29629;52.532;13.352;2022-12-07T15:34:37;4.30;99.90
41262;DHT22;29629;52.532;13.352;2022-12-07T15:37:04;4.40;99.90
41262;DHT22;29629;52.532;13.352;2022-12-07T15:39:33;4.30;99.90
41262;DHT22;29629;52.532;13.352;2022-12-07T15:42:00;4.40;99.90
41262;DHT22;29629;52.532;13.352;2022-12-07T15:44:27;4.60;99.90
41262;DHT22;29629;52.532;13.352;2022-12-07T15:47:11;4.40;99.90
41262;DHT22;29629;52.532;13.352;2022-12-07T15:49:38;4.30;99.90
41262;DHT22;29629;52.532;13.352;2022-12-07T15:52:05;4.30;99.90
41262;DHT22;29629;52.532;13.352;2022-12-07T15:54:33;4.30;99.90
41262;DHT22;29629;52.532;13.352;2022-12-07T15:57:01;4.30;99.90
41262;DHT22;29629;52.532;13.352;2022-12-07T15:59:28;4.30;99.90
41262;DHT22;29629;52.532;13.352;2022-12-07T16:01:55;4.30;99.90
41262;DHT22;29629;52.532;13.352;2022-12-07T16:04:22;4.20;99.90
41262;DHT22;29629;52.532;13.352;2022-12-07T16:06:49;4.20;99.90
41262;DHT22;29629;52.532;13.352;2022-12-07T16:09:17;4.20;99.90
41262;DHT22;29629;52.532;13.352;2022-12-07T16:11:46;4.20;99.90
41262;DHT22;29629;52.532;13.352;2022-12-07T16:14:12;4.10;99.90
41262;DHT22;29629;52.532;13.352;2022-12-07T16:16:39;4.00;99.90
41262;DHT22;29629;52.532;13.352;2022-12-07T16:19:07;4.00;99.90